createdAt,value
2016-04-24T00:02:43.273Z,2.4
2016-04-24T00:05:55.094Z,2.4
2016-04-24T00:09:11.695Z,2.5
2016-04-24T00:12:13.532Z,2.5
2016-04-24T00:15:25.446Z,2.5
2016-04-24T00:18:37.160Z,2.4
2016-04-24T00:21:48.887Z,2.4
2016-04-24T00:25:05.442Z,2.4
2016-04-24T00:28:12.246Z,2.4
2016-04-24T00:31:12.098Z,2.4
2016-04-24T00:34:25.872Z,2.4
2016-04-24T00:37:37.914Z,2.3
2016-04-24T00:40:49.500Z,2.4
2016-04-24T00:44:06.274Z,2.4
2016-04-24T00:47:13.001Z,2.5
2016-04-24T00:50:14.805Z,2.5
2016-04-24T00:53:26.720Z,2.5
2016-04-24T00:56:42.434Z,2.4
2016-04-24T00:59:49.864Z,2.4
2016-04-24T01:03:06.575Z,2.4
2016-04-24T01:06:06.380Z,2.4
2016-04-24T01:09:20.091Z,2.3
2016-04-24T01:12:31.946Z,2.3
2016-04-24T01:15:43.813Z,2.3
2016-04-24T01:18:51.321Z,2.2
2016-04-24T01:22:10.329Z,2
2016-04-24T01:25:12.151Z,1.9
2016-04-24T01:28:24.082Z,1.9
2016-04-24T01:31:34.545Z,1.9
2016-04-24T01:34:48.350Z,1.9
2016-04-24T01:38:04.983Z,1.9
2016-04-24T01:41:11.726Z,2
2016-04-24T01:44:13.703Z,2
2016-04-24T01:47:25.727Z,1.9
2016-04-24T01:50:37.706Z,1.9
2016-04-24T01:53:49.420Z,1.8
2016-04-24T01:57:06.486Z,1.7
2016-04-24T02:00:13.490Z,1.7
2016-04-24T02:03:15.448Z,1.7
2016-04-24T02:06:27.426Z,1.6
2016-04-24T02:09:37.827Z,1.6
2016-04-24T02:12:49.498Z,1.5
2016-04-24T02:16:06.445Z,1.4
2016-04-24T02:19:13.438Z,1.4
2016-04-24T02:22:16.401Z,1.4
2016-04-24T02:25:27.222Z,1.3
2016-04-24T02:28:38.904Z,1.1
2016-04-24T02:31:50.850Z,1
2016-04-24T02:35:07.670Z,0.9
2016-04-24T02:38:09.522Z,0.9
2016-04-24T02:41:21.687Z,0.9
2016-04-24T02:44:33.710Z,0.9
2016-04-24T02:47:45.769Z,0.8
2016-04-24T02:50:57.729Z,0.8
2016-04-24T02:54:09.674Z,0.8
2016-04-24T02:57:21.667Z,0.9
2016-04-24T03:00:33.754Z,1
2016-04-24T03:03:45.592Z,1.1
2016-04-24T03:06:55.726Z,1.2
2016-04-24T03:10:11.234Z,1.1
2016-04-24T03:13:13.101Z,1.1
2016-04-24T03:16:22.500Z,1.1
2016-04-24T03:19:34.320Z,1.1
2016-04-24T03:22:46.096Z,1.1
2016-04-24T03:25:55.824Z,1.1
2016-04-24T03:29:12.581Z,1.1
2016-04-24T03:32:14.433Z,1.2
2016-04-24T03:35:26.207Z,1.3
2016-04-24T03:38:37.920Z,1.4
2016-04-24T03:41:49.772Z,1.5
2016-04-24T03:45:06.531Z,1.5
2016-04-24T03:48:13.366Z,1.6
2016-04-24T03:51:15.188Z,1.6
2016-04-24T03:54:27.679Z,1.6
2016-04-24T03:57:35.657Z,1.7
2016-04-24T04:00:47.246Z,1.7
2016-04-24T04:04:03.987Z,1.7
2016-04-24T04:07:10.793Z,1.8
2016-04-24T04:10:12.614Z,1.8
2016-04-24T04:13:24.340Z,1.8
2016-04-24T04:16:36.020Z,1.8
2016-04-24T04:19:48.000Z,1.9
2016-04-24T04:23:04.633Z,1.8
2016-04-24T04:26:11.235Z,1.9
2016-04-24T04:29:12.836Z,1.9
2016-04-24T04:32:24.454Z,1.9
2016-04-24T04:35:36.462Z,1.9
2016-04-24T04:38:48.332Z,1.9
2016-04-24T04:42:05.043Z,2
2016-04-24T04:45:11.879Z,2
2016-04-24T04:48:13.700Z,2.1
2016-04-24T04:51:25.427Z,2.1
2016-04-24T04:54:36.997Z,2.1
2016-04-24T04:57:48.883Z,2.2
2016-04-24T05:01:05.485Z,2.2
2016-04-24T05:04:12.337Z,2.1
2016-04-24T05:07:14.173Z,2.1
2016-04-24T05:10:25.962Z,2.2
2016-04-24T05:13:34.955Z,2.2
2016-04-24T05:16:46.372Z,2.2
2016-04-24T05:19:58.192Z,2.1
2016-04-24T05:23:10.920Z,2.1
2016-04-24T05:26:22.021Z,2.1
2016-04-24T05:29:33.858Z,2.1
2016-04-24T05:32:45.743Z,2.2
2016-04-24T05:35:57.891Z,2.3
2016-04-24T05:39:09.993Z,2.6
2016-04-24T05:42:22.596Z,3.1
2016-04-24T05:45:35.150Z,3.6
2016-04-24T05:48:47.676Z,4.3
2016-04-24T05:52:05.481Z,5.1
2016-04-24T05:55:12.942Z,5.3
2016-04-24T05:58:15.513Z,5.4
2016-04-24T06:01:26.927Z,5.4
2016-04-24T06:04:39.466Z,5.8
2016-04-24T06:07:52.134Z,6.2
2016-04-24T06:11:09.829Z,6.9
2016-04-24T06:14:12.712Z,7.5
2016-04-24T06:17:25.439Z,8
2016-04-24T06:20:38.588Z,8.7
2016-04-24T06:23:51.823Z,9.6
2016-04-24T06:27:10.003Z,10.4
2016-04-24T06:30:13.574Z,10.6
2016-04-24T06:33:26.473Z,9.7
2016-04-24T06:36:37.261Z,9.5
2016-04-24T06:39:52.366Z,9.8
2016-04-24T06:43:10.235Z,9.1
2016-04-24T06:46:11.554Z,9.8
2016-04-24T06:49:27.219Z,10.6
2016-04-24T06:52:38.461Z,11
2016-04-24T06:55:52.034Z,11.5
2016-04-24T06:59:10.778Z,12.1
2016-04-24T07:02:14.206Z,11.6
2016-04-24T07:05:27.730Z,12.4
2016-04-24T07:08:39.301Z,13.5
2016-04-24T07:11:54.702Z,13.6
2016-04-24T07:15:13.210Z,13.1
2016-04-24T07:18:16.687Z,13.2
2016-04-24T07:21:30.524Z,14.6
2016-04-24T07:24:44.175Z,15.3
2016-04-24T07:27:57.902Z,15.8
2016-04-24T07:31:10.660Z,13.3
2016-04-24T07:34:23.309Z,11.2
2016-04-24T07:37:35.722Z,9.9
2016-04-24T07:40:48.546Z,9.5
2016-04-24T07:44:07.194Z,10.8
2016-04-24T07:47:11.359Z,13.5
2016-04-24T07:50:25.180Z,13.6
2016-04-24T07:53:38.968Z,13.6
2016-04-24T07:56:52.434Z,14.2
2016-04-24T08:00:10.503Z,13.2
2016-04-24T08:03:14.184Z,13.2
2016-04-24T08:06:25.597Z,13.8
2016-04-24T08:09:41.419Z,13
2016-04-24T08:12:53.835Z,11.3
2016-04-24T08:16:11.827Z,10.2
2016-04-24T08:19:15.055Z,9.7
2016-04-24T08:22:27.844Z,9.8
2016-04-24T08:25:40.884Z,10.4
2016-04-24T08:28:54.472Z,13.1
2016-04-24T08:32:12.731Z,12.3
2016-04-24T08:35:15.910Z,11.2
2016-04-24T08:38:28.855Z,10.1
2016-04-24T08:41:41.458Z,9
2016-04-24T08:44:54.280Z,8
2016-04-24T08:48:11.773Z,7
2016-04-24T08:51:12.204Z,6.3
2016-04-24T08:54:26.804Z,6
2016-04-24T08:57:39.422Z,6.7
2016-04-24T09:00:51.886Z,6.7
2016-04-24T09:04:09.581Z,6.7
2016-04-24T09:07:10.246Z,6.6
2016-04-24T09:10:24.630Z,6.5
2016-04-24T09:13:38.122Z,9.7
2016-04-24T09:16:48.489Z,10.7
2016-04-24T09:20:06.360Z,11.7
2016-04-24T09:23:09.914Z,13.1
2016-04-24T09:26:20.501Z,12.1
2016-04-24T09:29:32.821Z,10.8
2016-04-24T09:32:45.219Z,9.8
2016-04-24T09:35:57.840Z,8.8
2016-04-24T09:39:09.878Z,8
2016-04-24T09:42:21.872Z,7.4
2016-04-24T09:45:34.145Z,7
2016-04-24T09:48:46.669Z,8.4
2016-04-24T09:52:04.382Z,8.5
2016-04-24T09:55:12.610Z,10.1
2016-04-24T09:58:15.759Z,10.4
2016-04-24T10:01:28.517Z,9.8
2016-04-24T10:04:41.353Z,9.7
2016-04-24T10:07:54.017Z,9.4
2016-04-24T10:11:11.887Z,9.2
2016-04-24T10:14:14.802Z,9.2
2016-04-24T10:17:27.606Z,9
2016-04-24T10:20:39.319Z,9
2016-04-24T10:23:51.982Z,9
2016-04-24T10:27:09.540Z,8.4
2016-04-24T10:30:12.313Z,8
2016-04-24T10:33:24.978Z,8
2016-04-24T10:36:37.830Z,8.2
2016-04-24T10:39:50.697Z,8.6
2016-04-24T10:43:08.583Z,8.7
2016-04-24T10:46:11.466Z,8.5
2016-04-24T10:49:24.114Z,8
2016-04-24T10:52:36.825Z,7.9
2016-04-24T10:55:53.427Z,7.8
2016-04-24T10:59:06.742Z,7.9
2016-04-24T11:02:09.654Z,7.9
2016-04-24T11:05:22.287Z,7.7
2016-04-24T11:08:34.855Z,7.5
2016-04-24T11:11:47.418Z,7.4
2016-04-24T11:14:59.849Z,7.4
2016-04-24T11:18:12.633Z,7.4
2016-04-24T11:21:25.003Z,7.5
2016-04-24T11:24:37.480Z,7.6
2016-04-24T11:27:50.022Z,7.2
2016-04-24T11:31:07.455Z,6.9
2016-04-24T11:34:10.119Z,6.7
2016-04-24T11:37:22.674Z,6.8
2016-04-24T11:40:35.322Z,6.9
2016-04-24T11:43:48.003Z,7.2
2016-04-24T11:47:05.482Z,7.2
2016-04-24T11:50:13.193Z,7.4
2016-04-24T11:53:15.967Z,7.3
2016-04-24T11:56:28.428Z,7.2
2016-04-24T11:59:41.326Z,7.5
2016-04-24T12:02:51.272Z,7.6
2016-04-24T12:06:08.986Z,7.5
2016-04-24T12:09:11.838Z,7.5
2016-04-24T12:12:24.393Z,7.5
2016-04-24T12:15:34.760Z,7.6
2016-04-24T12:18:47.346Z,7.7
2016-04-24T12:22:00.073Z,7.6
2016-04-24T12:25:12.850Z,7.6
2016-04-24T12:28:25.217Z,7.6
2016-04-24T12:31:37.912Z,7.5
2016-04-24T12:34:50.608Z,7.4
2016-04-24T12:38:07.947Z,7.4
2016-04-24T12:41:10.846Z,7.7
2016-04-24T12:44:23.604Z,7.9
2016-04-24T12:47:36.253Z,7.8
2016-04-24T12:50:49.027Z,7.9
2016-04-24T12:54:06.780Z,7.8
2016-04-24T12:57:14.602Z,7.8
2016-04-24T13:00:17.452Z,7.9
2016-04-24T13:03:30.211Z,7.9
2016-04-24T13:06:41.500Z,7.7
2016-04-24T13:09:54.148Z,7.5
2016-04-24T13:13:11.769Z,7.4
2016-04-24T13:16:14.589Z,7.4
2016-04-24T13:19:27.144Z,7.2
2016-04-24T13:22:39.903Z,7.1
2016-04-24T13:25:52.739Z,7.2
2016-04-24T13:29:07.859Z,7.3
2016-04-24T13:32:10.602Z,7.4
2016-04-24T13:35:22.015Z,7.5
2016-04-24T13:38:34.961Z,7.6
2016-04-24T13:41:46.438Z,7.6
2016-04-24T13:44:59.195Z,7.6
2016-04-24T13:48:11.925Z,7.8
2016-04-24T13:51:24.747Z,8
2016-04-24T13:54:37.270Z,8
2016-04-24T13:57:50.044Z,8
2016-04-24T14:01:07.536Z,8.1
2016-04-24T14:04:10.497Z,8.1
2016-04-24T14:07:22.367Z,8.1
2016-04-24T14:10:34.907Z,8
2016-04-24T14:13:47.524Z,7.8
2016-04-24T14:17:00.381Z,7.8
2016-04-24T14:20:10.842Z,7.8
2016-04-24T14:23:23.431Z,7.9
2016-04-24T14:26:36.205Z,8
2016-04-24T14:29:49.041Z,8.1
2016-04-24T14:33:06.720Z,8.2
2016-04-24T14:36:14.543Z,8.2
2016-04-24T14:39:17.240Z,8.3
2016-04-24T14:42:30.060Z,8.4
2016-04-24T14:45:42.787Z,8.6
2016-04-24T14:48:55.592Z,8.7
2016-04-24T14:52:13.287Z,8.7
2016-04-24T14:55:16.095Z,8.7
2016-04-24T14:58:28.853Z,8.6
2016-04-24T15:01:41.439Z,8.6
2016-04-24T15:04:50.494Z,8.5
2016-04-24T15:08:07.955Z,8.3
2016-04-24T15:11:11.167Z,8.1
2016-04-24T15:14:23.240Z,7.9
2016-04-24T15:17:35.717Z,7.9
2016-04-24T15:20:48.162Z,7.8
2016-04-24T15:24:05.592Z,7.7
2016-04-24T15:27:13.351Z,7.8
2016-04-24T15:30:15.983Z,7.8
2016-04-24T15:33:28.713Z,7.7
2016-04-24T15:36:41.393Z,7.6
2016-04-24T15:39:51.745Z,7.5
2016-04-24T15:43:11.628Z,7.2
2016-04-24T15:46:14.276Z,6.9
2016-04-24T15:49:26.662Z,6.6
2016-04-24T15:52:39.201Z,6.4
2016-04-24T15:55:53.228Z,6.2
2016-04-24T15:59:09.271Z,6.1
2016-04-24T16:02:11.873Z,6.1
2016-04-24T16:05:24.243Z,6.1
2016-04-24T16:08:34.883Z,6.1
2016-04-24T16:11:47.047Z,6.1
2016-04-24T16:14:59.477Z,6.1
2016-04-24T16:18:11.829Z,6
2016-04-24T16:21:24.074Z,5.9
2016-04-24T16:24:36.473Z,5.9
2016-04-24T16:27:48.903Z,5.9
2016-04-24T16:31:06.240Z,5.8
2016-04-24T16:34:13.294Z,5.7
2016-04-24T16:37:15.256Z,5.6
2016-04-24T16:40:28.328Z,5.5
2016-04-24T16:43:37.462Z,5.5
2016-04-24T16:46:49.533Z,5.4
2016-04-24T16:49:59.571Z,5.4
2016-04-24T16:53:11.627Z,5.5
2016-04-24T16:56:23.932Z,5.6
2016-04-24T16:59:35.801Z,5.5
2016-04-24T17:02:47.779Z,5.4
2016-04-24T17:05:59.787Z,5.3
2016-04-24T17:09:11.779Z,5.3
2016-04-24T17:12:23.803Z,5.2
2016-04-24T17:15:35.533Z,5.2
2016-04-24T17:18:47.588Z,5.2
2016-04-24T17:21:57.752Z,5.1
2016-04-24T17:25:11.807Z,5
2016-04-24T17:28:23.768Z,4.9
2016-04-24T17:31:35.857Z,4.8
2016-04-24T17:34:48.068Z,4.8
2016-04-24T17:38:00.107Z,4.9
2016-04-24T17:41:11.850Z,4.9
2016-04-24T17:44:23.873Z,4.9
2016-04-24T17:47:35.088Z,4.9
2016-04-24T17:50:47.064Z,4.9
2016-04-24T17:53:58.869Z,4.9
2016-04-24T17:57:10.768Z,4.9
2016-04-24T18:00:20.448Z,4.8
2016-04-24T18:03:29.334Z,4.8
2016-04-24T18:06:41.154Z,4.6
2016-04-24T18:09:52.350Z,4.4
2016-04-24T18:13:09.123Z,4.2
2016-04-24T18:16:11.053Z,4.1
2016-04-24T18:19:23.030Z,4.1
2016-04-24T18:22:35.025Z,4.1
2016-04-24T18:25:47.033Z,4
2016-04-24T18:28:56.104Z,3.9
2016-04-24T18:32:13.112Z,3.9
2016-04-24T18:35:15.120Z,3.9
2016-04-24T18:38:27.035Z,3.9
2016-04-24T18:41:39.045Z,3.9
2016-04-24T18:44:51.006Z,3.8
2016-04-24T18:47:59.952Z,3.8
2016-04-24T18:51:11.928Z,3.7
2016-04-24T18:54:23.922Z,3.7
2016-04-24T18:57:35.838Z,3.7
2016-04-24T19:00:45.565Z,3.7
2016-04-24T19:03:55.151Z,3.8
2016-04-24T19:07:12.051Z,3.8
2016-04-24T19:10:14.059Z,3.8
2016-04-24T19:13:26.144Z,3.9
2016-04-24T19:16:38.234Z,3.9
2016-04-24T19:19:50.303Z,3.8
2016-04-24T19:23:07.365Z,3.5
2016-04-24T19:26:14.904Z,3.4
2016-04-24T19:29:16.132Z,3.4
2016-04-24T19:32:28.030Z,3.4
2016-04-24T19:35:39.947Z,3.3
2016-04-24T19:38:51.666Z,3.1
2016-04-24T19:42:08.361Z,3
2016-04-24T19:45:15.355Z,2.9
2016-04-24T19:48:17.284Z,2.8
2016-04-24T19:51:29.183Z,2.8
2016-04-24T19:54:41.162Z,2.9
2016-04-24T19:57:52.968Z,2.9
2016-04-24T20:01:09.662Z,2.8
2016-04-24T20:04:11.531Z,2.8
2016-04-24T20:07:23.050Z,2.7
2016-04-24T20:10:32.781Z,2.5
2016-04-24T20:13:46.382Z,2.5
2016-04-24T20:16:58.064Z,2.4
2016-04-24T20:20:14.729Z,2.3
2016-04-24T20:23:16.449Z,2.3
2016-04-24T20:26:28.072Z,2.2
2016-04-24T20:29:39.680Z,2.2
2016-04-24T20:32:50.126Z,2.1
2016-04-24T20:36:06.994Z,2.1
2016-04-24T20:39:13.675Z,2.1
2016-04-24T20:42:15.823Z,2.1
2016-04-24T20:45:27.394Z,2
2016-04-24T20:48:37.949Z,2
2016-04-24T20:51:48.460Z,1.9
2016-04-24T20:55:00.265Z,1.9
2016-04-24T20:58:12.085Z,1.8
2016-04-24T21:01:23.734Z,1.8
2016-04-24T21:04:35.695Z,1.9
2016-04-24T21:07:47.643Z,1.9
2016-04-24T21:10:58.386Z,1.9
2016-04-24T21:14:14.816Z,1.9
2016-04-24T21:17:16.464Z,1.8
2016-04-24T21:20:28.113Z,1.9
2016-04-24T21:23:39.716Z,1.7
2016-04-24T21:26:51.303Z,1.7
2016-04-24T21:30:07.984Z,1.7
2016-04-24T21:33:14.710Z,1.8
2016-04-24T21:36:16.390Z,1.7
2016-04-24T21:39:28.086Z,1.7
2016-04-24T21:42:39.953Z,1.8
2016-04-24T21:45:51.761Z,1.8
2016-04-24T21:49:08.347Z,1.7
2016-04-24T21:52:15.028Z,1.7
2016-04-24T21:55:16.847Z,1.7
2016-04-24T21:58:26.684Z,1.9
2016-04-24T22:01:40.457Z,1.9
2016-04-24T22:04:52.203Z,2
2016-04-24T22:08:07.851Z,2
2016-04-24T22:11:14.579Z,2.1
2016-04-24T22:14:16.352Z,2.1
2016-04-24T22:17:28.095Z,2.2
2016-04-24T22:20:40.227Z,2.2
2016-04-24T22:23:50.207Z,2.1
2016-04-24T22:27:08.746Z,2.1
2016-04-24T22:30:15.582Z,2.1
2016-04-24T22:33:17.482Z,2.2
2016-04-24T22:36:29.317Z,2.2
2016-04-24T22:39:39.091Z,2
2016-04-24T22:42:50.662Z,1.9
2016-04-24T22:46:07.266Z,1.7
2016-04-24T22:49:13.900Z,1.7
2016-04-24T22:52:15.564Z,1.7
2016-04-24T22:55:26.197Z,1.7
2016-04-24T22:58:37.846Z,1.7
2016-04-24T23:01:49.619Z,1.5
2016-04-24T23:04:59.755Z,1.4
2016-04-24T23:08:16.465Z,1.3
2016-04-24T23:11:18.099Z,1.3
2016-04-24T23:14:29.670Z,1.3
2016-04-24T23:17:45.615Z,1.3
2016-04-24T23:20:53.001Z,1.3
2016-04-24T23:24:09.681Z,1.4
2016-04-24T23:27:16.392Z,1.5
2016-04-24T23:30:17.947Z,1.6
2016-04-24T23:33:29.580Z,1.4
2016-04-24T23:36:41.182Z,1.5
2016-04-24T23:39:52.690Z,1.6
2016-04-24T23:43:07.029Z,1.6
2016-04-24T23:46:13.521Z,1.7
2016-04-24T23:49:15.248Z,1.6
2016-04-24T23:52:24.553Z,1.6
2016-04-24T23:55:33.906Z,1.7
2016-04-24T23:58:49.257Z,1.6
